Time;durP1;ratioP1;P1;durP2;ratioP2;P2;SDS_P1;SDS_P2;PMS_P1;PMS_P2;Temp;Humidity;BMP_temperature;BMP_pressure;BME280_temperature;BME280_humidity;BME280_pressure;Samples;Min_cycle;Max_cycle;Signal;HPM_P1;HPM_P2
2023/03/22 00:00:27;;;;;;;;;;;;;;;19.44;38.83;100683.45;101627;1311;72690;-81
2023/03/22 00:03:05;;;;;;;;;;;;;;;19.44;38.88;100683.99;101596;1317;76068;-82
2023/03/22 00:05:34;;;;;;;;;;;;;;;19.44;38.95;100683.98;101665;1310;62118;-81
2023/03/22 00:08:04;;;;;;;;;;;;;;;19.43;38.91;100680.81;101579;1317;62598;-82
2023/03/22 00:10:30;;;;;;;;;;;;;;;19.44;38.88;100680.27;101493;1317;73540;-81
2023/03/22 00:12:55;;;;;;;;;;;;;;;19.44;38.89;100678.31;101480;1317;62360;-82
2023/03/22 00:15:21;;;;;;;;;;;;;;;19.44;38.92;100680.09;101585;1311;62234;-82
2023/03/22 00:17:49;;;;;;;;;;;;;;;19.43;38.95;100678.86;101457;1311;62241;-82
2023/03/22 00:20:16;;;;;;;;;;;;;;;19.43;38.91;100676.17;101609;1315;62360;-82
2023/03/22 00:22:42;;;;;;;;;;;;;;;19.43;38.91;100667.67;101552;1312;62265;-81
2023/03/22 00:25:08;;;;;;;;;;;;;;;19.43;38.90;100666.06;101729;1313;62253;-81
2023/03/22 00:27:33;;;;;;;;;;;;;;;19.42;38.96;100664.29;101488;1315;62292;-81
2023/03/22 00:29:59;;;;;;;;;;;;;;;19.42;38.92;100663.41;101410;1312;62552;-82
2023/03/22 00:32:24;;;;;;;;;;;;;;;19.42;38.96;100665.38;101565;1314;62255;-83
2023/03/22 00:34:51;;;;;;;;;;;;;;;19.43;39.00;100661.05;101480;1316;75966;-81
2023/03/22 00:37:16;;;;;;;;;;;;;;;19.42;38.99;100659.48;101575;1314;62247;-81
2023/03/22 00:39:42;;;;;;;;;;;;;;;19.42;38.95;100659.33;101515;1311;62248;-82
2023/03/22 00:42:07;;;;;;;;;;;;;;;19.42;38.97;100663.27;101576;1314;62181;-82
2023/03/22 00:44:33;;;;;;;;;;;;;;;19.42;39.04;100660.06;101715;1311;62494;-82
2023/03/22 00:46:59;;;;;;;;;;;;;;;19.41;38.98;100655.97;101577;1311;75404;-80
2023/03/22 00:49:26;;;;;;;;;;;;;;;19.41;39.02;100657.41;101542;1317;63992;-81
2023/03/22 00:51:52;;;;;;;;;;;;;;;19.41;38.99;100657.06;101613;1312;62257;-82
2023/03/22 00:54:17;;;;;;;;;;;;;;;19.41;39.04;100653.69;101506;1316;62158;-81
2023/03/22 00:56:44;;;;;;;;;;;;;;;19.41;38.99;100655.10;101593;1311;62174;-82
2023/03/22 00:59:11;;;;;;;;;;;;;;;19.41;39.02;100653.13;101772;1312;62252;-82
2023/03/22 01:01:39;;;;;;;;;;;;;;;19.41;39.06;100652.08;101671;1315;62447;-81
2023/03/22 01:04:16;;;;;;;;;;;;;;;19.40;39.23;100652.11;101656;1314;72621;-81
2023/03/22 01:06:43;;;;;;;;;;;;;;;19.40;39.03;100648.36;101643;1311;76278;-81
2023/03/22 01:09:13;;;;;;;;;;;;;;;19.41;39.13;100649.40;101533;1317;62337;-82
2023/03/22 01:11:42;;;;;;;;;;;;;;;19.40;39.09;100648.00;101632;1311;62134;-82
2023/03/22 01:14:08;;;;;;;;;;;;;;;19.41;39.13;100648.38;101568;1316;73504;-82
2023/03/22 01:16:42;;;;;;;;;;;;;;;19.40;39.14;100652.48;101600;1311;62216;-82
2023/03/22 01:19:08;;;;;;;;;;;;;;;19.41;39.18;100650.85;101589;1312;62584;-82
2023/03/22 01:21:34;;;;;;;;;;;;;;;19.40;39.22;100646.94;101641;1317;62314;-82
2023/03/22 01:23:59;;;;;;;;;;;;;;;19.40;39.10;100645.55;101415;1311;62824;-82
2023/03/22 01:26:25;;;;;;;;;;;;;;;19.40;39.13;100642.52;101679;1312;62328;-82
2023/03/22 01:28:51;;;;;;;;;;;;;;;19.40;39.16;100637.89;101609;1313;62241;-82
2023/03/22 01:31:16;;;;;;;;;;;;;;;19.39;39.13;100635.93;101618;1310;62254;-82
2023/03/22 01:33:43;;;;;;;;;;;;;;;19.40;39.16;100634.15;101613;1312;62155;-82
2023/03/22 01:36:09;;;;;;;;;;;;;;;19.39;39.15;100630.43;101575;1311;62258;-81
2023/03/22 01:38:35;;;;;;;;;;;;;;;19.39;39.15;100627.91;101529;1317;62555;-82
2023/03/22 01:41:01;;;;;;;;;;;;;;;19.40;39.15;100627.73;101600;1315;62238;-82
2023/03/22 01:43:27;;;;;;;;;;;;;;;19.39;39.12;100620.63;101566;1317;62226;-83
2023/03/22 01:45:53;;;;;;;;;;;;;;;19.39;39.18;100621.16;101643;1316;62324;-83
2023/03/22 01:48:36;;;;;;;;;;;;;;;19.39;39.17;100624.20;101572;1311;63192;-82
2023/03/22 01:51:03;;;;;;;;;;;;;;;19.39;39.16;100628.83;101518;1314;62251;-82
2023/03/22 01:53:30;;;;;;;;;;;;;;;19.38;39.27;100626.20;101641;1314;62222;-82
2023/03/22 01:55:56;;;;;;;;;;;;;;;19.39;39.18;100626.88;101589;1311;71822;-82
2023/03/22 01:58:22;;;;;;;;;;;;;;;19.38;39.21;100627.29;101564;1312;62114;-81
2023/03/22 02:00:48;;;;;;;;;;;;;;;19.38;39.22;100623.89;101468;1316;62325;-82
2023/03/22 02:03:15;;;;;;;;;;;;;;;19.38;39.18;100631.20;101551;1312;62244;-82
2023/03/22 02:05:40;;;;;;;;;;;;;;;19.38;39.25;100635.52;101636;1311;62184;-82
2023/03/22 02:08:08;;;;;;;;;;;;;;;19.38;39.25;100635.88;101562;1312;62248;-82
2023/03/22 02:10:33;;;;;;;;;;;;;;;19.37;39.18;100641.24;101609;1317;62321;-82
2023/03/22 02:13:19;;;;;;;;;;;;;;;19.37;39.23;100643.58;101554;1311;62254;-82
2023/03/22 02:15:54;;;;;;;;;;;;;;;19.37;39.22;100647.32;101525;1316;72698;-82
2023/03/22 02:18:39;;;;;;;;;;;;;;;19.37;39.22;100649.67;101442;1315;76654;-82
2023/03/22 02:21:09;;;;;;;;;;;;;;;19.37;39.30;100654.67;101532;1314;62434;-82
2023/03/22 02:23:42;;;;;;;;;;;;;;;19.37;39.28;100656.44;101554;1311;62194;-82
2023/03/22 02:26:11;;;;;;;;;;;;;;;19.37;39.18;100663.42;101651;1312;72369;-82
2023/03/22 02:28:42;;;;;;;;;;;;;;;19.37;39.29;100658.78;101557;1313;76240;-81
2023/03/22 02:31:31;;;;;;;;;;;;;;;19.36;39.24;100660.60;101627;1312;62013;-81
2023/03/22 02:34:08;;;;;;;;;;;;;;;19.36;39.25;100666.13;101605;1317;62161;-81
2023/03/22 02:36:49;;;;;;;;;;;;;;;19.37;39.23;100666.46;101611;1314;73522;-81
2023/03/22 02:39:17;;;;;;;;;;;;;;;19.37;39.34;100671.98;101461;1314;76267;-82
2023/03/22 02:41:57;;;;;;;;;;;;;;;19.36;39.26;100671.49;101530;1312;62165;-82
2023/03/22 02:44:32;;;;;;;;;;;;;;;19.36;39.36;100675.08;101596;1312;63377;-82
2023/03/22 02:47:03;;;;;;;;;;;;;;;19.36;39.30;100680.77;101554;1311;72440;-82
2023/03/22 02:49:58;;;;;;;;;;;;;;;19.36;39.30;100679.36;101629;1312;76422;-82
2023/03/22 02:52:26;;;;;;;;;;;;;;;19.36;39.36;100684.36;100915;1317;62246;-82
2023/03/22 02:54:55;;;;;;;;;;;;;;;19.36;39.34;100683.45;101001;1320;62190;-81
2023/03/22 02:57:37;;;;;;;;;;;;;;;19.36;39.26;100683.29;101031;1320;72595;-81
2023/03/22 03:00:07;;;;;;;;;;;;;;;19.35;39.31;100681.38;100970;1320;75448;-81
2023/03/22 03:02:33;;;;;;;;;;;;;;;19.35;39.35;100683.34;101119;1317;62153;-81
2023/03/22 03:04:59;;;;;;;;;;;;;;;19.35;39.35;100682.97;101022;1316;62344;-82
2023/03/22 03:07:25;;;;;;;;;;;;;;;19.35;39.28;100684.05;100931;1318;63412;-81
2023/03/22 03:09:50;;;;;;;;;;;;;;;19.35;39.37;100683.88;100984;1320;62791;-82
2023/03/22 03:12:20;;;;;;;;;;;;;;;19.35;39.34;100681.39;100931;1317;62241;-81
2023/03/22 03:14:48;;;;;;;;;;;;;;;19.35;39.36;100675.51;101082;1315;62217;-82
2023/03/22 03:17:19;;;;;;;;;;;;;;;19.35;39.34;100671.58;101038;1315;62266;-81
2023/03/22 03:19:52;;;;;;;;;;;;;;;19.35;39.36;100669.46;101109;1317;75656;-81
2023/03/22 03:22:23;;;;;;;;;;;;;;;19.34;39.39;100667.15;101119;1320;62800;-81
2023/03/22 03:25:17;;;;;;;;;;;;;;;19.35;39.38;100663.94;101050;1317;62300;-81
2023/03/22 03:27:48;;;;;;;;;;;;;;;19.34;39.38;100663.45;100865;1320;72709;-81
2023/03/22 03:30:44;;;;;;;;;;;;;;;19.34;39.46;100664.16;101475;1316;75593;-82
2023/03/22 03:33:12;;;;;;;;;;;;;;;19.34;39.44;100663.09;101036;1315;62218;-82
2023/03/22 03:35:57;;;;;;;;;;;;;;;19.34;39.33;100664.14;101137;1320;62117;-81
2023/03/22 03:38:25;;;;;;;;;;;;;;;19.34;39.45;100667.38;101032;1318;72778;-82
2023/03/22 03:40:53;;;;;;;;;;;;;;;19.33;39.39;100669.17;101154;1320;75533;-81
2023/03/22 03:43:19;;;;;;;;;;;;;;;19.34;39.43;100670.03;101275;1317;62212;-82
2023/03/22 03:45:44;;;;;;;;;;;;;;;19.33;39.35;100669.55;101139;1317;62226;-82
2023/03/22 03:48:13;;;;;;;;;;;;;;;19.34;39.40;100668.45;101031;1317;62270;-80
2023/03/22 03:50:39;;;;;;;;;;;;;;;19.33;39.45;100667.93;101040;1317;76293;-81
2023/03/22 03:53:05;;;;;;;;;;;;;;;19.33;39.41;100668.30;101021;1320;62931;-81
2023/03/22 03:55:31;;;;;;;;;;;;;;;19.33;39.43;100666.86;100940;1317;62210;-81
2023/03/22 03:57:57;;;;;;;;;;;;;;;19.33;39.44;100663.16;101106;1320;62265;-82
2023/03/22 04:00:22;;;;;;;;;;;;;;;19.33;39.43;100661.91;101093;1315;63215;-81
2023/03/22 04:02:48;;;;;;;;;;;;;;;19.32;39.45;100667.65;101139;1320;62315;-81
2023/03/22 04:05:14;;;;;;;;;;;;;;;19.32;39.42;100671.05;101150;1315;62447;-81
2023/03/22 04:07:40;;;;;;;;;;;;;;;19.32;39.44;100674.80;101006;1320;62217;-81
2023/03/22 04:10:06;;;;;;;;;;;;;;;19.32;39.44;100673.39;101308;1318;62338;-81
2023/03/22 04:12:32;;;;;;;;;;;;;;;19.32;39.42;100675.56;101611;1312;63021;-81
2023/03/22 04:14:57;;;;;;;;;;;;;;;19.31;39.43;100680.56;101493;1314;62242;-81
2023/03/22 04:17:27;;;;;;;;;;;;;;;19.31;39.39;100680.09;101719;1314;62245;-82
2023/03/22 04:19:55;;;;;;;;;;;;;;;19.31;39.37;100689.67;101647;1314;72053;-82
2023/03/22 04:22:21;;;;;;;;;;;;;;;19.31;39.44;100693.98;101725;1313;75193;-82
2023/03/22 04:24:48;;;;;;;;;;;;;;;19.31;39.51;100693.44;101656;1314;62217;-82
2023/03/22 04:27:17;;;;;;;;;;;;;;;19.31;39.34;100701.84;101547;1311;62044;-83
2023/03/22 04:29:47;;;;;;;;;;;;;;;19.30;39.42;100703.99;101584;1311;72592;-82
2023/03/22 04:32:33;;;;;;;;;;;;;;;;;;;;;
2023/03/22 04:34:59;;;;;;;;;;;;;;;19.31;39.47;100706.46;101628;1314;62241;-82
2023/03/22 04:37:25;;;;;;;;;;;;;;;19.30;39.47;100709.69;101593;1315;62194;-81
2023/03/22 04:39:51;;;;;;;;;;;;;;;19.31;39.43;100715.73;101671;1312;62229;-81
2023/03/22 04:42:17;;;;;;;;;;;;;;;19.31;39.45;100718.23;101737;1312;62395;-82
2023/03/22 04:44:43;;;;;;;;;;;;;;;19.31;39.42;100720.21;101606;1314;62222;-82
2023/03/22 04:47:08;;;;;;;;;;;;;;;19.30;39.41;100725.64;101643;1312;63546;-82
2023/03/22 04:49:34;;;;;;;;;;;;;;;19.27;39.47;100729.16;101584;1310;62810;-82
2023/03/22 04:52:00;;;;;;;;;;;;;;;19.25;39.50;100732.33;101719;1314;73502;-81
2023/03/22 04:54:27;;;;;;;;;;;;;;;19.22;39.52;100731.62;101559;1315;63480;-81
2023/03/22 04:56:52;;;;;;;;;;;;;;;19.20;39.55;100733.37;101579;1311;62113;-81
2023/03/22 04:59:19;;;;;;;;;;;;;;;19.20;39.58;100739.11;101564;1315;62254;-81
2023/03/22 05:01:46;;;;;;;;;;;;;;;19.20;39.59;100736.79;101882;1317;62229;-81
2023/03/22 05:04:11;;;;;;;;;;;;;;;19.20;39.59;100736.41;101604;1314;62286;-82
2023/03/22 05:06:37;;;;;;;;;;;;;;;19.20;39.62;100735.33;101635;1315;62242;-81
2023/03/22 05:09:03;;;;;;;;;;;;;;;19.21;39.67;100740.79;101575;1315;62976;-82
2023/03/22 05:11:29;;;;;;;;;;;;;;;19.21;39.65;100743.69;101636;1315;62235;-81
2023/03/22 05:13:55;;;;;;;;;;;;;;;19.22;39.63;100742.73;101643;1315;62816;-81
2023/03/22 05:16:20;;;;;;;;;;;;;;;19.22;39.56;100745.77;101578;1317;76280;-82
2023/03/22 05:18:46;;;;;;;;;;;;;;;19.22;39.58;100750.36;101635;1317;62327;-82
2023/03/22 05:21:14;;;;;;;;;;;;;;;19.23;39.57;100757.84;101605;1310;62278;-81
2023/03/22 05:23:40;;;;;;;;;;;;;;;19.21;39.58;100758.30;101811;1310;62319;-82
2023/03/22 05:26:07;;;;;;;;;;;;;;;19.19;39.59;100753.94;101674;1312;62375;-82
2023/03/22 05:28:33;;;;;;;;;;;;;;;19.18;39.59;100756.73;101687;1314;63111;-81
2023/03/22 05:30:58;;;;;;;;;;;;;;;19.17;39.62;100761.08;102024;1318;62238;-81
2023/03/22 05:33:26;;;;;;;;;;;;;;;19.13;39.68;100761.85;101833;1318;62498;-83
2023/03/22 05:35:52;;;;;;;;;;;;;;;19.11;39.60;100766.45;102065;1312;62822;-82
2023/03/22 05:38:17;;;;;;;;;;;;;;;19.07;39.62;100769.36;102173;1309;62266;-81
2023/03/22 05:40:43;;;;;;;;;;;;;;;18.96;39.67;100771.11;102029;1315;62338;-82
2023/03/22 05:43:09;;;;;;;;;;;;;;;18.87;39.70;100773.59;102103;1315;62343;-82
2023/03/22 05:45:35;;;;;;;;;;;;;;;18.86;39.84;100774.56;102465;1312;63335;-80
2023/03/22 05:48:02;;;;;;;;;;;;;;;18.72;39.92;100777.90;102506;1317;76364;-80
2023/03/22 05:50:27;;;;;;;;;;;;;;;18.70;40.07;100778.40;102528;1317;62085;-80
2023/03/22 05:52:53;;;;;;;;;;;;;;;18.69;40.00;100778.61;102382;1315;62137;-80
2023/03/22 05:55:19;;;;;;;;;;;;;;;18.67;40.09;100781.79;102735;1315;62140;-81
2023/03/22 05:57:50;;;;;;;;;;;;;;;18.64;40.15;100782.15;102686;1315;63471;-81
2023/03/22 06:00:16;;;;;;;;;;;;;;;18.61;40.22;100786.60;103031;1317;62005;-80
2023/03/22 06:03:08;;;;;;;;;;;;;;;18.59;40.15;100785.13;103073;1311;63059;-81
2023/03/22 06:05:36;;;;;;;;;;;;;;;18.57;40.29;100793.21;103298;1315;75031;-81
2023/03/22 06:08:09;;;;;;;;;;;;;;;18.62;40.39;100794.95;102966;1310;76672;-80
2023/03/22 06:10:35;;;;;;;;;;;;;;;18.67;40.32;100797.14;103030;1312;62213;-80
2023/03/22 06:13:00;;;;;;;;;;;;;;;18.71;40.36;100801.87;103005;1311;62357;-80
2023/03/22 06:15:26;;;;;;;;;;;;;;;18.74;40.46;100799.34;102640;1314;62595;-81
2023/03/22 06:17:52;;;;;;;;;;;;;;;18.78;40.31;100805.56;102610;1314;63493;-80
2023/03/22 06:20:18;;;;;;;;;;;;;;;18.79;40.38;100807.24;102592;1309;62148;-81
2023/03/22 06:22:43;;;;;;;;;;;;;;;18.79;40.41;100811.91;102484;1309;62250;-80
2023/03/22 06:25:09;;;;;;;;;;;;;;;18.78;40.59;100810.35;102614;1316;62302;-81
2023/03/22 06:27:35;;;;;;;;;;;;;;;18.78;40.71;100811.95;102775;1312;60301;-80
2023/03/22 06:30:01;;;;;;;;;;;;;;;18.78;40.66;100815.02;102655;1309;62216;-80
2023/03/22 06:32:26;;;;;;;;;;;;;;;18.77;40.84;100815.57;102877;1314;62206;-81
2023/03/22 06:34:55;;;;;;;;;;;;;;;18.78;40.88;100818.56;102922;1312;61209;-80
2023/03/22 06:37:21;;;;;;;;;;;;;;;18.79;40.88;100817.98;102926;1312;61200;-80
2023/03/22 06:39:46;;;;;;;;;;;;;;;18.79;41.09;100818.14;102849;1314;60925;-80
2023/03/22 06:42:12;;;;;;;;;;;;;;;18.79;41.02;100822.21;102830;1314;62233;-80
2023/03/22 06:44:38;;;;;;;;;;;;;;;18.80;41.18;100821.65;102626;1309;62337;-80
2023/03/22 06:47:03;;;;;;;;;;;;;;;18.81;41.19;100822.50;102640;1310;61979;-81
2023/03/22 06:49:30;;;;;;;;;;;;;;;18.82;41.21;100827.04;102943;1312;62120;-80
2023/03/22 06:51:55;;;;;;;;;;;;;;;18.85;41.18;100827.41;103004;1315;72966;-81
2023/03/22 06:54:21;;;;;;;;;;;;;;;18.87;41.30;100829.21;103065;1311;63699;-81
2023/03/22 06:56:46;;;;;;;;;;;;;;;18.91;41.34;100831.89;103023;1309;60241;-80
2023/03/22 06:59:12;;;;;;;;;;;;;;;18.93;41.35;100834.06;102797;1312;62817;-81
2023/03/22 07:01:37;;;;;;;;;;;;;;;18.97;41.43;100832.92;103240;1314;62253;-81
2023/03/22 07:04:03;;;;;;;;;;;;;;;19.00;41.38;100837.18;102211;1311;673325;-81
2023/03/22 07:06:31;;;;;;;;;;;;;;;19.04;41.33;100839.10;102960;1315;62134;-81
2023/03/22 07:08:56;;;;;;;;;;;;;;;19.08;41.31;100841.88;104097;1311;60954;-81
2023/03/22 07:11:22;;;;;;;;;;;;;;;19.12;41.35;100844.12;104221;1312;60508;-81
2023/03/22 07:13:48;;;;;;;;;;;;;;;19.15;41.29;100841.63;103348;1314;60618;-81
2023/03/22 07:16:13;;;;;;;;;;;;;;;19.18;41.33;100844.30;103060;1308;62054;-81
2023/03/22 07:18:39;;;;;;;;;;;;;;;19.22;41.33;100846.91;103045;1311;62190;-80
2023/03/22 07:21:04;;;;;;;;;;;;;;;19.26;41.20;100849.00;102928;1311;62150;-81
2023/03/22 07:23:30;;;;;;;;;;;;;;;19.28;41.16;100848.66;102954;1311;63103;-80
2023/03/22 07:25:58;;;;;;;;;;;;;;;19.31;41.12;100850.25;102862;1312;62220;-81
2023/03/22 07:28:24;;;;;;;;;;;;;;;19.33;41.12;100848.02;103080;1314;76644;-81
2023/03/22 07:30:57;;;;;;;;;;;;;;;19.35;40.97;100851.44;103052;1311;60260;-81
2023/03/22 07:33:23;;;;;;;;;;;;;;;19.37;41.01;100853.98;103090;1311;62720;-81
2023/03/22 07:35:49;;;;;;;;;;;;;;;19.40;40.91;100856.32;103063;1309;62120;-81
2023/03/22 07:38:14;;;;;;;;;;;;;;;19.43;40.98;100859.89;102984;1311;62274;-80
2023/03/22 07:40:40;;;;;;;;;;;;;;;19.46;40.93;100861.81;103024;1311;61672;-80
2023/03/22 07:43:05;;;;;;;;;;;;;;;19.49;40.88;100864.15;102779;1311;62025;-81
2023/03/22 07:45:32;;;;;;;;;;;;;;;19.50;40.94;100869.42;102904;1311;62180;-81
2023/03/22 07:47:57;;;;;;;;;;;;;;;19.51;40.85;100870.30;103103;1312;60544;-80
2023/03/22 07:50:23;;;;;;;;;;;;;;;19.51;40.82;100867.92;103148;1311;62217;-81
2023/03/22 07:52:48;;;;;;;;;;;;;;;19.53;40.84;100868.37;103424;1309;60524;-80
2023/03/22 07:55:14;;;;;;;;;;;;;;;19.53;40.96;100867.63;103193;1311;62362;-81
2023/03/22 07:57:41;;;;;;;;;;;;;;;19.52;41.09;100870.34;103208;1310;60698;-81
2023/03/22 08:00:09;;;;;;;;;;;;;;;19.53;41.09;100872.42;103344;1312;73895;-81
2023/03/22 08:02:34;;;;;;;;;;;;;;;19.54;41.05;100876.30;103284;1310;76387;-81
2023/03/22 08:05:00;;;;;;;;;;;;;;;19.53;41.15;100878.13;103112;1310;62151;-81
2023/03/22 08:07:25;;;;;;;;;;;;;;;19.53;41.20;100882.26;102944;1311;62333;-81
2023/03/22 08:09:51;;;;;;;;;;;;;;;19.54;41.31;100882.36;103190;1311;63476;-81
2023/03/22 08:12:17;;;;;;;;;;;;;;;19.58;41.43;100887.31;103310;1311;60589;-81
2023/03/22 08:14:46;;;;;;;;;;;;;;;19.58;41.46;100886.91;103040;1311;62164;-80
2023/03/22 08:17:12;;;;;;;;;;;;;;;19.59;41.41;100889.52;102935;1311;60587;-81
2023/03/22 08:19:37;;;;;;;;;;;;;;;19.61;41.44;100890.16;103038;1308;62182;-80
2023/03/22 08:22:03;;;;;;;;;;;;;;;19.62;41.42;100895.06;103083;1311;63114;-80
2023/03/22 08:24:29;;;;;;;;;;;;;;;19.63;41.35;100892.71;103069;1311;60508;-80
2023/03/22 08:26:55;;;;;;;;;;;;;;;19.64;41.32;100890.50;102925;1314;61961;-80
2023/03/22 08:29:22;;;;;;;;;;;;;;;19.64;41.15;100890.33;102976;1317;62203;-82
2023/03/22 08:31:47;;;;;;;;;;;;;;;19.64;41.26;100891.91;102693;1311;62590;-81
2023/03/22 08:34:13;;;;;;;;;;;;;;;19.64;41.13;100888.90;102944;1309;62149;-81
2023/03/22 08:36:39;;;;;;;;;;;;;;;19.64;41.11;100891.94;102892;1315;62270;-81
2023/03/22 08:39:05;;;;;;;;;;;;;;;19.65;41.30;100888.68;102956;1311;62168;-81
2023/03/22 08:41:30;;;;;;;;;;;;;;;19.65;41.12;100889.58;103150;1311;62270;-81
2023/03/22 08:43:56;;;;;;;;;;;;;;;19.65;41.15;100891.36;103090;1311;62171;-80
2023/03/22 08:46:22;;;;;;;;;;;;;;;19.66;41.13;100895.05;103092;1311;72548;-80
2023/03/22 08:48:49;;;;;;;;;;;;;;;19.68;41.12;100899.03;102894;1311;62230;-80
2023/03/22 08:51:18;;;;;;;;;;;;;;;19.69;41.10;100895.54;102814;1311;62161;-81
2023/03/22 08:53:43;;;;;;;;;;;;;;;19.71;41.15;100898.79;102882;1312;60175;-81
2023/03/22 08:56:09;;;;;;;;;;;;;;;19.74;41.21;100903.40;102772;1314;62603;-80
2023/03/22 08:58:35;;;;;;;;;;;;;;;19.76;41.26;100900.05;102805;1311;62242;-81
2023/03/22 09:01:00;;;;;;;;;;;;;;;19.78;41.24;100904.79;102952;1314;62498;-80
2023/03/22 09:03:26;;;;;;;;;;;;;;;19.80;41.31;100903.62;103296;1311;61741;-81
2023/03/22 09:05:51;;;;;;;;;;;;;;;19.79;41.41;100903.10;103436;1314;62083;-82
2023/03/22 09:08:17;;;;;;;;;;;;;;;19.80;41.55;100903.79;103351;1309;73874;-82
2023/03/22 09:10:43;;;;;;;;;;;;;;;19.82;41.70;100902.56;103167;1314;62234;-81
2023/03/22 09:13:12;;;;;;;;;;;;;;;19.86;41.98;100900.41;103331;1311;62129;-81
2023/03/22 09:15:38;;;;;;;;;;;;;;;19.88;41.99;100900.98;103430;1311;60676;-82
2023/03/22 09:18:04;;;;;;;;;;;;;;;19.88;41.97;100907.37;103247;1311;61756;-81
2023/03/22 09:20:29;;;;;;;;;;;;;;;19.88;41.98;100905.08;102940;1311;61991;-81
2023/03/22 09:22:55;;;;;;;;;;;;;;;19.88;41.82;100905.80;103171;1310;60744;-80
2023/03/22 09:25:22;;;;;;;;;;;;;;;19.89;41.83;100907.15;102936;1311;62257;-80
2023/03/22 09:27:47;;;;;;;;;;;;;;;19.88;41.97;100903.97;102930;1311;62157;-81
2023/03/22 09:30:14;;;;;;;;;;;;;;;19.88;41.75;100905.20;102768;1315;62095;-80
2023/03/22 09:32:39;;;;;;;;;;;;;;;19.88;41.79;100905.23;102863;1316;75141;-81
2023/03/22 09:35:05;;;;;;;;;;;;;;;19.89;41.78;100907.13;102821;1309;63289;-80
2023/03/22 09:37:31;;;;;;;;;;;;;;;19.90;41.90;100906.23;102828;1310;60744;-81
2023/03/22 09:39:57;;;;;;;;;;;;;;;19.89;41.76;100902.35;102846;1311;59948;-80
2023/03/22 09:42:31;;;;;;;;;;;;;;;19.88;41.76;100902.91;103040;1311;61251;-81
2023/03/22 09:44:57;;;;;;;;;;;;;;;19.89;41.81;100903.42;102914;1311;62079;-81
2023/03/22 09:47:25;;;;;;;;;;;;;;;19.89;41.84;100901.98;102990;1311;62252;-81
2023/03/22 09:49:53;;;;;;;;;;;;;;;19.91;41.77;100903.47;104216;1308;73436;-81
2023/03/22 09:52:18;;;;;;;;;;;;;;;19.91;41.78;100901.81;103241;1311;74598;-80
2023/03/22 09:54:44;;;;;;;;;;;;;;;19.92;41.88;100901.91;102937;1311;62225;-81
2023/03/22 09:57:19;;;;;;;;;;;;;;;19.92;41.83;100902.83;103326;1311;62136;-80
2023/03/22 10:00:10;;;;;;;;;;;;;;;19.91;41.87;100905.02;103221;1314;75087;-80
2023/03/22 10:02:47;;;;;;;;;;;;;;;19.86;41.86;100901.63;103345;1314;75489;-82
2023/03/22 10:05:24;;;;;;;;;;;;;;;19.75;41.87;100898.58;104110;1310;60818;-81
2023/03/22 10:08:00;;;;;;;;;;;;;;;19.71;42.19;100900.95;103364;1311;62111;-82
2023/03/22 10:10:25;;;;;;;;;;;;;;;19.65;42.09;100902.03;103459;1308;72322;-82
2023/03/22 10:13:06;;;;;;;;;;;;;;;19.54;42.11;100905.95;103425;1314;60841;-81
2023/03/22 10:15:43;;;;;;;;;;;;;;;19.51;42.22;100905.02;103276;1311;61912;-81
2023/03/22 10:18:38;;;;;;;;;;;;;;;19.56;42.35;100909.21;102912;1311;62222;-81
2023/03/22 10:21:08;;;;;;;;;;;;;;;19.58;42.40;100910.81;102720;1311;72598;-80
2023/03/22 10:23:43;;;;;;;;;;;;;;;19.60;42.41;100910.02;103109;1311;75291;-81
2023/03/22 10:26:12;;;;;;;;;;;;;;;19.57;42.27;100909.33;102927;1308;62120;-81
2023/03/22 10:28:40;;;;;;;;;;;;;;;19.55;42.35;100909.64;102853;1312;62140;-81
2023/03/22 10:31:09;;;;;;;;;;;;;;;19.54;42.36;100910.23;102678;1311;72144;-81
2023/03/22 10:33:35;;;;;;;;;;;;;;;19.53;42.23;100902.98;102982;1312;75352;-81
2023/03/22 10:36:01;;;;;;;;;;;;;;;19.54;42.18;100900.59;102960;1311;62260;-81
2023/03/22 10:38:29;;;;;;;;;;;;;;;19.56;42.21;100901.33;102951;1310;62139;-81
2023/03/22 10:40:56;;;;;;;;;;;;;;;19.58;42.14;100903.17;102859;1311;71646;-80
2023/03/22 10:43:27;;;;;;;;;;;;;;;19.61;42.11;100898.39;102760;1311;62275;-81
2023/03/22 10:45:52;;;;;;;;;;;;;;;19.65;42.14;100899.36;102869;1309;62212;-80
2023/03/22 10:48:31;;;;;;;;;;;;;;;19.67;42.18;100896.54;102685;1311;62335;-80
2023/03/22 10:50:58;;;;;;;;;;;;;;;19.70;42.11;100895.13;103246;1308;74562;-81
2023/03/22 10:53:33;;;;;;;;;;;;;;;19.73;42.09;100894.23;102763;1311;76418;-80
2023/03/22 10:55:59;;;;;;;;;;;;;;;19.73;42.09;100894.57;102705;1311;62129;-81
2023/03/22 10:58:28;;;;;;;;;;;;;;;19.73;42.16;100894.73;102932;1311;62107;-80
2023/03/22 11:00:58;;;;;;;;;;;;;;;19.72;42.10;100888.90;103275;1311;73782;-81
2023/03/22 11:03:36;;;;;;;;;;;;;;;19.69;42.22;100891.97;103274;1311;75382;-81
2023/03/22 11:06:05;;;;;;;;;;;;;;;19.68;42.22;100889.37;103221;1311;62594;-80
2023/03/22 11:08:57;;;;;;;;;;;;;;;19.66;42.31;100887.00;103265;1308;61099;-81
2023/03/22 11:11:26;;;;;;;;;;;;;;;19.65;42.36;100890.27;103146;1310;74693;-81
2023/03/22 11:14:15;;;;;;;;;;;;;;;19.63;42.26;100885.90;103212;1309;76445;-81
2023/03/22 11:17:01;;;;;;;;;;;;;;;19.57;42.48;100886.27;103376;1310;61360;-80
2023/03/22 11:19:28;;;;;;;;;;;;;;;19.54;42.44;100880.77;103245;1308;61966;-81
2023/03/22 11:21:53;;;;;;;;;;;;;;;19.54;42.53;100877.95;103527;1311;73840;-83
2023/03/22 11:24:20;;;;;;;;;;;;;;;19.55;42.49;100873.39;103471;1312;62289;-82
2023/03/22 11:27:00;;;;;;;;;;;;;;;19.56;42.53;100874.23;103388;1309;60252;-82
2023/03/22 11:29:26;;;;;;;;;;;;;;;19.57;42.53;100874.53;103415;1311;62131;-84
2023/03/22 11:32:00;;;;;;;;;;;;;;;19.57;42.48;100869.73;103351;1308;62009;-82
2023/03/22 11:34:28;;;;;;;;;;;;;;;19.52;42.52;100868.23;103203;1312;75972;-82
2023/03/22 11:36:55;;;;;;;;;;;;;;;19.54;42.62;100868.09;103009;1311;62024;-82
2023/03/22 11:39:21;;;;;;;;;;;;;;;19.56;42.56;100866.52;103219;1309;61356;-83
2023/03/22 11:41:48;;;;;;;;;;;;;;;19.54;42.34;100864.54;102991;1310;74016;-82
2023/03/22 11:44:15;;;;;;;;;;;;;;;19.49;42.37;100865.38;103080;1308;60531;-82
2023/03/22 11:46:56;;;;;;;;;;;;;;;19.46;42.57;100862.88;104192;1311;60370;-82
2023/03/22 11:49:34;;;;;;;;;;;;;;;19.47;42.42;100863.92;104412;1308;60832;-83
2023/03/22 11:52:05;;;;;;;;;;;;;;;19.42;42.42;100859.73;104317;1308;72700;-83
2023/03/22 11:54:33;;;;;;;;;;;;;;;19.38;42.46;100858.93;104383;1311;75268;-83
2023/03/22 11:57:00;;;;;;;;;;;;;;;19.34;42.61;100859.91;104272;1311;60321;-82
2023/03/22 11:59:45;;;;;;;;;;;;;;;19.33;42.59;100856.74;103564;1310;62222;-82
2023/03/22 12:02:14;;;;;;;;;;;;;;;19.30;42.62;100859.44;103504;1311;72235;-82
2023/03/22 12:04:40;;;;;;;;;;;;;;;19.22;42.63;100857.81;103713;1311;76155;-81
2023/03/22 12:07:13;;;;;;;;;;;;;;;19.06;42.63;100858.09;103433;1312;60222;-82
2023/03/22 12:09:40;;;;;;;;;;;;;;;18.82;42.82;100860.56;103482;1311;60714;-82
2023/03/22 12:12:09;;;;;;;;;;;;;;;18.70;42.97;100858.78;103441;1311;72306;-82
2023/03/22 12:14:40;;;;;;;;;;;;;;;18.72;43.08;100860.80;103147;1311;75832;-82
2023/03/22 12:17:16;;;;;;;;;;;;;;;18.70;43.04;100859.15;104186;1311;61030;-82
2023/03/22 12:20:01;;;;;;;;;;;;;;;18.68;43.21;100855.14;104150;1311;60658;-82
2023/03/22 12:22:30;;;;;;;;;;;;;;;18.73;43.20;100854.14;104379;1308;72584;-82
2023/03/22 12:24:56;;;;;;;;;;;;;;;18.77;43.23;100855.89;104016;1310;74546;-83
2023/03/22 12:27:23;;;;;;;;;;;;;;;18.80;43.18;100856.23;102428;1310;62139;-82
2023/03/22 12:30:01;;;;;;;;;;;;;;;18.84;43.22;100855.66;102383;1308;62254;-82
2023/03/22 12:32:27;;;;;;;;;;;;;;;18.82;43.11;100856.33;102486;1311;73351;-82
2023/03/22 12:34:53;;;;;;;;;;;;;;;18.79;43.15;100856.48;102355;1310;75226;-82